Time;durP1;ratioP1;P1;durP2;ratioP2;P2;SDS_P1;SDS_P2;PMS_P1;PMS_P2;Temp;Humidity;BMP_temperature;BMP_pressure;BME280_temperature;BME280_humidity;BME280_pressure;Samples;Min_cycle;Max_cycle;Signal;HPM_P1;HPM_P2
2023/06/15 00:01:40;;;;;;;12.90;7.50;;;;;;;14.58;95.64;100705.11;221718;1267;140875;-81
2023/06/15 00:06:40;;;;;;;13.50;8.50;;;;;;;14.55;95.68;100702.90;221996;1264;139187;-82
2023/06/15 00:11:41;;;;;;;13.00;7.70;;;;;;;14.52;95.88;100701.07;221535;1265;142686;-82
2023/06/15 00:16:41;;;;;;;14.90;8.40;;;;;;;14.48;95.96;100703.53;222257;1267;138700;-83
2023/06/15 00:21:42;;;;;;;12.30;6.90;;;;;;;14.47;95.40;100696.02;221682;1267;140745;-83
2023/06/15 00:26:46;;;;;;;12.40;8.10;;;;;;;14.45;95.03;100690.00;222234;1266;139062;-81
2023/06/15 00:31:46;;;;;;;13.70;9.10;;;;;;;14.45;94.96;100690.08;221719;1267;142052;-81
2023/06/15 00:36:46;;;;;;;14.30;8.00;;;;;;;14.41;95.50;100690.08;222307;1265;139233;-82
2023/06/15 00:41:47;;;;;;;15.20;10.10;;;;;;;14.38;95.30;100687.86;221697;1264;143232;-82
2023/06/15 00:46:48;;;;;;;15.10;8.70;;;;;;;14.36;95.59;100679.55;222388;1265;97889;-82
2023/06/15 00:51:48;;;;;;;13.70;8.40;;;;;;;14.35;95.65;100681.23;221699;1263;141409;-80
2023/06/15 00:56:50;;;;;;;15.30;9.30;;;;;;;14.32;96.55;100677.83;222250;1264;139260;-81
2023/06/15 01:01:54;;;;;;;15.60;9.30;;;;;;;14.30;96.74;100677.41;221635;1267;140345;-82
2023/06/15 01:07:04;;;;;;;14.60;8.70;;;;;;;14.27;96.91;100672.91;222232;1264;140170;-81
2023/06/15 01:12:07;;;;;;;15.60;8.70;;;;;;;14.26;97.37;100667.61;221689;1264;141566;-82
2023/06/15 01:17:13;;;;;;;14.40;9.00;;;;;;;14.24;97.41;100669.84;222365;1267;97984;-82
2023/06/15 01:22:41;;;;;;;11.70;7.30;;;;;;;14.22;97.80;100665.95;221713;1266;140214;-83
2023/06/15 01:27:43;;;;;;;14.20;8.10;;;;;;;14.20;98.07;100667.21;221920;1264;139448;-83
2023/06/15 01:32:44;;;;;;;14.50;9.00;;;;;;;14.19;97.68;100663.26;221518;1264;143198;-82
2023/06/15 01:37:45;;;;;;;11.50;7.30;;;;;;;14.19;97.67;100655.66;222301;1264;139245;-83
2023/06/15 01:42:47;;;;;;;13.20;8.10;;;;;;;14.18;97.66;100661.48;221734;1264;141978;-83
2023/06/15 01:47:49;;;;;;;12.40;6.70;;;;;;;14.17;97.31;100655.56;222242;1267;139648;-84
2023/06/15 01:52:49;;;;;;;13.00;7.40;;;;;;;14.17;96.63;100653.50;221826;1264;140274;-82
2023/06/15 01:57:53;;;;;;;12.60;6.50;;;;;;;14.16;96.25;100651.92;222196;1264;138880;-82
2023/06/15 02:02:53;;;;;;;9.50;6.20;;;;;;;14.14;96.18;100659.98;221672;1265;141906;-81
2023/06/15 02:07:54;;;;;;;12.10;7.10;;;;;;;14.12;95.66;100662.36;221994;1264;139050;-82
2023/06/15 02:12:56;;;;;;;11.20;6.10;;;;;;;14.09;95.67;100658.02;221734;1266;140205;-81
2023/06/15 02:18:01;;;;;;;11.40;6.80;;;;;;;14.09;95.98;100656.02;222311;1266;139045;-82
2023/06/15 02:23:02;;;;;;;9.50;5.60;;;;;;;14.07;95.32;100652.30;221791;1267;141285;-82
2023/06/15 02:28:02;;;;;;;9.50;6.10;;;;;;;14.06;95.36;100653.12;222263;1267;139376;-82
2023/06/15 02:33:05;;;;;;;10.70;6.10;;;;;;;14.04;94.98;100652.15;221658;1266;140195;-82
2023/06/15 02:38:05;;;;;;;11.00;6.60;;;;;;;14.03;95.83;100650.19;222035;1264;139645;-84
2023/06/15 02:43:06;;;;;;;11.20;6.40;;;;;;;14.00;95.51;100648.36;221685;1264;142332;-82
2023/06/15 02:48:08;;;;;;;11.80;7.00;;;;;;;14.00;95.59;100646.15;221952;1266;140479;-82
2023/06/15 02:53:08;;;;;;;10.70;6.80;;;;;;;13.99;96.22;100644.16;221767;1266;140875;-83
2023/06/15 02:58:09;;;;;;;13.30;8.10;;;;;;;13.98;95.80;100648.27;221979;1264;139027;-82
2023/06/15 03:03:09;;;;;;;11.20;7.00;;;;;;;13.96;95.82;100651.75;221663;1264;142361;-82
2023/06/15 03:08:12;;;;;;;13.00;7.40;;;;;;;13.95;96.12;100650.40;221990;1264;140584;-82
2023/06/15 03:13:13;;;;;;;10.50;6.10;;;;;;;13.94;96.08;100652.30;221715;1264;143689;-82
2023/06/15 03:18:14;;;;;;;12.50;7.20;;;;;;;13.94;95.64;100654.20;222274;1267;140834;-82
2023/06/15 03:23:14;;;;;;;11.30;7.10;;;;;;;13.94;96.36;100655.55;221808;1264;139406;-82
2023/06/15 03:28:24;;;;;;;10.50;6.60;;;;;;;13.94;96.64;100662.27;222279;1263;138897;-82
2023/06/15 03:33:24;;;;;;;12.70;6.70;;;;;;;13.94;96.81;100659.56;221687;1264;141393;-81
2023/06/15 03:38:25;;;;;;;10.50;6.10;;;;;;;13.93;96.59;100662.35;221923;1266;139092;-84
2023/06/15 03:43:25;;;;;;;11.40;6.40;;;;;;;13.94;96.31;100663.61;221692;1263;140486;-83
2023/06/15 03:48:26;;;;;;;10.70;6.50;;;;;;;13.96;96.35;100662.52;222191;1264;139229;-82
2023/06/15 03:53:26;;;;;;;11.60;6.20;;;;;;;13.97;95.71;100662.84;221780;1266;140394;-82
2023/06/15 03:58:26;;;;;;;11.00;6.70;;;;;;;14.00;95.78;100665.36;222182;1265;138847;-81
2023/06/15 04:03:27;;;;;;;12.30;7.70;;;;;;;14.02;95.80;100664.10;221682;1266;140303;-80
2023/06/15 04:08:27;;;;;;;13.50;7.80;;;;;;;14.03;95.81;100665.20;222303;1264;139075;-79
2023/06/15 04:13:28;;;;;;;11.50;7.10;;;;;;;14.05;95.93;100668.13;221766;1266;141236;-80
2023/06/15 04:18:28;;;;;;;13.30;7.20;;;;;;;14.07;96.16;100673.19;222260;1266;140058;-81
2023/06/15 04:23:29;;;;;;;14.80;8.90;;;;;;;14.08;96.83;100673.27;221508;1268;141526;-80
2023/06/15 04:28:30;;;;;;;10.40;7.10;;;;;;;14.08;96.90;100679.59;222131;1268;139064;-81
2023/06/15 04:33:32;;;;;;;13.80;7.90;;;;;;;14.09;96.96;100682.20;221725;1264;141618;-81
2023/06/15 04:38:32;;;;;;;11.20;7.40;;;;;;;14.10;96.72;100683.95;222271;1266;139036;-80
2023/06/15 04:43:32;;;;;;;11.90;7.50;;;;;;;14.13;97.34;100684.59;221450;1264;141952;-80
2023/06/15 04:48:33;;;;;;;14.90;8.40;;;;;;;14.17;97.34;100683.31;222230;1264;139095;-80
2023/06/15 04:53:33;;;;;;;12.80;9.10;;;;;;;14.20;97.50;100686.34;221770;1264;140305;-81
2023/06/15 04:58:34;;;;;;;11.90;7.90;;;;;;;14.24;97.66;100683.20;222232;1266;140034;-81
2023/06/15 05:03:35;;;;;;;12.30;8.70;;;;;;;14.29;97.77;100684.69;221683;1266;141560;-81
2023/06/15 05:08:35;;;;;;;17.10;9.20;;;;;;;14.34;97.94;100676.95;222155;1266;139086;-81
2023/06/15 05:13:36;;;;;;;12.70;8.80;;;;;;;14.39;97.97;100683.52;221656;1267;142478;-80
2023/06/15 05:18:36;;;;;;;16.60;9.90;;;;;;;14.45;97.99;100679.55;222268;1267;140085;-80
2023/06/15 05:23:37;;;;;;;13.30;8.70;;;;;;;14.50;98.26;100682.55;221777;1264;141459;-82
2023/06/15 05:28:37;;;;;;;12.80;7.90;;;;;;;14.54;97.93;100680.27;222149;1268;138916;-82
2023/06/15 05:33:37;;;;;;;13.40;7.70;;;;;;;14.57;97.92;100673.68;221732;1268;140183;-85
2023/06/15 05:38:38;;;;;;;10.90;7.20;;;;;;;14.60;98.32;100666.56;221993;1268;140249;-84
2023/06/15 05:43:38;;;;;;;13.50;6.90;;;;;;;14.61;97.82;100668.46;221669;1264;140002;-85
2023/06/15 05:48:39;;;;;;;9.90;6.90;;;;;;;14.67;97.58;100671.45;222183;1264;139063;-82
2023/06/15 05:53:39;;;;;;;10.80;6.90;;;;;;;14.71;97.92;100672.79;221575;1264;139973;-82
2023/06/15 05:58:40;;;;;;;10.20;6.10;;;;;;;14.75;98.16;100676.90;222253;1267;138958;-82
2023/06/15 06:03:40;;;;;;;13.80;7.80;;;;;;;14.78;97.77;100675.15;221713;1267;140201;-83
2023/06/15 06:08:40;;;;;;;11.00;6.60;;;;;;;14.81;98.81;100679.59;222174;1267;139137;-84
2023/06/15 06:13:41;;;;;;;9.80;6.40;;;;;;;14.85;97.82;100685.02;221470;1264;142225;-82
2023/06/15 06:18:41;;;;;;;11.00;5.60;;;;;;;14.91;97.47;100682.09;222206;1264;139661;-83
2023/06/15 06:23:42;;;;;;;9.50;6.20;;;;;;;14.96;96.55;100680.89;221737;1264;139902;-84
2023/06/15 06:28:42;;;;;;;10.70;6.10;;;;;;;15.02;96.20;100679.52;222246;1264;138540;-83
2023/06/15 06:33:42;;;;;;;9.80;5.80;;;;;;;15.12;96.83;100677.03;221735;1266;141439;-84
2023/06/15 06:38:45;;;;;;;8.50;5.20;;;;;;;15.21;97.28;100683.98;221997;1264;278538;-84
2023/06/15 06:43:45;;;;;;;11.40;7.10;;;;;;;15.32;97.47;100684.66;221664;1267;140344;-84
2023/06/15 06:48:46;;;;;;;12.10;7.00;;;;;;;15.44;97.71;100681.77;222201;1267;139421;-85
2023/06/15 06:53:46;;;;;;;12.30;5.80;;;;;;;15.60;98.12;100686.76;221841;1264;140019;-84
2023/06/15 06:58:47;;;;;;;9.80;5.70;;;;;;;15.80;97.90;100689.27;222153;1264;139686;-84
2023/06/15 07:03:47;;;;;;;9.50;5.40;;;;;;;16.01;97.66;100693.74;221711;1264;140408;-85
2023/06/15 07:08:48;;;;;;;10.20;4.90;;;;;;;16.21;97.06;100695.42;222265;1264;138825;-88
2023/06/15 07:13:49;;;;;;;13.00;6.60;;;;;;;16.34;96.07;100693.18;221568;1264;152806;-85
2023/06/15 07:18:49;;;;;;;11.50;6.50;;;;;;;16.53;95.90;100692.02;221614;1264;141805;-84
2023/06/15 07:23:49;;;;;;;11.50;6.20;;;;;;;16.79;96.06;100691.20;222217;1264;139105;-84
2023/06/15 07:28:50;;;;;;;12.60;7.40;;;;;;;17.05;95.30;100692.29;221798;1264;140799;-83
2023/06/15 07:33:53;;;;;;;12.60;7.50;;;;;;;17.30;94.92;100689.21;222256;1264;139854;-84
2023/06/15 07:38:54;;;;;;;9.70;6.00;;;;;;;17.58;94.47;100690.31;221756;1264;141064;-83
2023/06/15 07:43:54;;;;;;;11.80;7.00;;;;;;;17.79;93.35;100689.30;222044;1264;140260;-81
2023/06/15 07:48:55;;;;;;;13.70;8.10;;;;;;;17.97;92.21;100686.89;221756;1267;141172;-83
2023/06/15 07:53:55;;;;;;;11.50;7.80;;;;;;;18.20;91.63;100684.94;222229;1264;139955;-82
2023/06/15 07:58:56;;;;;;;14.20;8.10;;;;;;;18.46;90.60;100687.89;221777;1264;142246;-82
2023/06/15 08:03:56;;;;;;;13.10;8.20;;;;;;;18.66;90.05;100687.30;222198;1264;138822;-83
2023/06/15 08:08:56;;;;;;;12.90;7.80;;;;;;;18.93;89.21;100686.41;221475;1264;143377;-82
2023/06/15 08:13:57;;;;;;;11.90;7.80;;;;;;;19.20;88.14;100678.73;222229;1264;139762;-82
2023/06/15 08:18:57;;;;;;;13.70;7.50;;;;;;;19.38;85.79;100677.09;221687;1263;140955;-83
2023/06/15 08:23:57;;;;;;;12.20;7.40;;;;;;;19.54;85.39;100672.37;222245;1263;139426;-83
2023/06/15 08:28:58;;;;;;;14.30;6.80;;;;;;;19.90;85.14;100671.48;221645;1264;140511;-84
2023/06/15 08:33:58;;;;;;;11.80;6.00;;;;;;;20.34;85.24;100671.48;222286;1264;138993;-83
2023/06/15 08:38:59;;;;;;;9.50;4.70;;;;;;;20.73;81.89;100665.91;221684;1264;145110;-82
2023/06/15 08:44:00;;;;;;;10.20;5.20;;;;;;;21.01;80.60;100667.80;222206;1264;139146;-83
2023/06/15 08:49:02;;;;;;;10.10;5.10;;;;;;;21.43;79.61;100665.47;221639;1263;141230;-83
2023/06/15 08:54:04;;;;;;;11.10;4.90;;;;;;;21.74;78.10;100669.22;221942;1264;139945;-83
2023/06/15 08:59:04;;;;;;;8.10;4.70;;;;;;;22.06;75.78;100673.98;221917;1264;142223;-83
2023/06/15 09:04:05;;;;;;;7.80;4.40;;;;;;;22.28;74.36;100672.45;222180;1264;138702;-83
2023/06/15 09:09:05;;;;;;;9.50;5.40;;;;;;;22.53;73.31;100668.02;221658;1264;142371;-84
2023/06/15 09:14:09;;;;;;;11.20;6.00;;;;;;;23.03;73.86;100660.70;222221;1264;140663;-85
2023/06/15 09:19:11;;;;;;;10.70;5.60;;;;;;;23.53;71.74;100659.69;221671;1264;141144;-87
2023/06/15 09:24:13;;;;;;;9.80;4.90;;;;;;;24.02;70.34;100656.92;222274;1264;138375;-84
2023/06/15 09:29:13;;;;;;;8.30;5.00;;;;;;;24.32;67.23;100653.21;221545;1264;161410;-85
2023/06/15 09:34:13;;;;;;;7.90;4.40;;;;;;;24.48;65.31;100652.55;222480;1264;138365;-85
2023/06/15 09:39:15;;;;;;;8.90;4.60;;;;;;;24.38;64.68;100652.17;221802;1264;140017;-85
2023/06/15 09:44:16;;;;;;;11.50;4.80;;;;;;;24.66;65.31;100643.31;222186;1264;138420;-87
2023/06/15 09:49:25;;;;;;;12.20;5.90;;;;;;;25.23;64.39;100642.34;221525;1264;139664;-87
2023/06/15 09:54:30;;;;;;;8.80;5.30;;;;;;;25.75;62.99;100635.23;222037;1264;138347;-85
2023/06/15 09:59:31;;;;;;;12.30;5.70;;;;;;;25.67;60.37;100630.79;221819;1264;141202;-88
2023/06/15 10:04:36;;;;;;;9.00;5.80;;;;;;;25.56;61.26;100629.02;222248;1264;138092;-87
2023/06/15 10:09:44;;;;;;;9.80;5.50;;;;;;;25.95;60.33;100620.64;221460;1264;140215;-89
2023/06/15 10:15:10;;;;;;;11.70;5.50;;;;;;;26.11;59.16;100618.59;221602;1264;138221;-88
2023/06/15 10:20:16;;;;;;;10.20;6.00;;;;;;;26.23;57.91;100609.42;221677;1264;141050;-87
2023/06/15 10:25:18;;;;;;;;;;;;;;;25.99;57.57;100609.98;222066;1264;138772;-87
2023/06/15 10:30:33;;;;;;;10.20;5.10;;;;;;;25.75;57.16;100615.40;221826;1264;126490;-86
2023/06/15 10:35:44;;;;;;;8.30;4.80;;;;;;;25.26;57.35;100622.73;222355;1267;104337;-88
2023/06/15 10:40:49;;;;;;;9.60;5.00;;;;;;;25.01;58.60;100620.25;221677;1264;140446;-84
2023/06/15 10:45:50;;;;;;;11.00;5.30;;;;;;;25.01;59.38;100613.15;222325;1264;137986;-85
2023/06/15 10:50:53;;;;;;;10.80;5.70;;;;;;;24.99;58.93;100607.80;221591;1267;140076;-85
2023/06/15 10:55:58;;;;;;;8.50;5.30;;;;;;;24.69;58.57;100608.96;222200;1264;138539;-85
2023/06/15 11:01:08;;;;;;;11.60;4.70;;;;;;;24.43;59.26;100606.08;221680;1264;141170;-85
2023/06/15 11:06:18;;;;;;;10.90;5.80;;;;;;;24.06;60.38;100596.70;222294;1264;140205;-86
2023/06/15 11:11:22;;;;;;;8.90;5.20;;;;;;;23.53;61.14;100593.11;221816;1264;143082;-84
2023/06/15 11:16:28;;;;;;;9.60;5.30;;;;;;;22.99;63.03;100601.76;222119;1264;138246;-84
2023/06/15 11:21:29;;;;;;;8.60;4.60;;;;;;;22.76;63.31;100594.00;221734;1264;139624;-85
2023/06/15 11:26:29;;;;;;;9.50;5.40;;;;;;;22.61;64.55;100593.10;222314;1264;138526;-85
2023/06/15 11:31:31;;;;;;;9.20;5.20;;;;;;;22.37;64.15;100591.15;221682;1264;142181;-84
2023/06/15 11:36:31;;;;;;;10.90;5.90;;;;;;;22.09;64.81;100590.34;222013;1264;139303;-84
2023/06/15 11:41:32;;;;;;;9.80;5.20;;;;;;;21.81;64.90;100587.17;221881;1264;141326;-85
2023/06/15 11:46:32;;;;;;;8.60;5.10;;;;;;;21.58;65.73;100584.27;222199;1264;138008;-85
2023/06/15 11:51:33;;;;;;;8.90;5.20;;;;;;;21.42;66.43;100584.38;221707;1264;140231;-82
2023/06/15 11:56:34;;;;;;;9.80;5.40;;;;;;;21.34;67.45;100583.52;222172;1264;138286;-85
2023/06/15 12:01:36;;;;;;;8.60;4.50;;;;;;;21.37;67.63;100574.77;221545;1264;139912;-85
2023/06/15 12:06:36;;;;;;;9.90;4.90;;;;;;;21.48;67.78;100561.48;222304;1263;138473;-81
2023/06/15 12:11:37;;;;;;;9.30;4.30;;;;;;;21.59;66.48;100552.39;221791;1267;141111;-84
2023/06/15 12:16:38;;;;;;;8.60;4.30;;;;;;;21.77;66.75;100544.09;222292;1264;138593;-85
2023/06/15 12:21:47;;;;;;;11.80;4.80;;;;;;;21.93;65.32;100543.70;221565;1264;139228;-86
2023/06/15 12:26:52;;;;;;;8.40;4.70;;;;;;;22.35;65.61;100544.34;222066;1264;138523;-84
2023/06/15 12:31:54;;;;;;;8.60;4.90;;;;;;;22.96;64.34;100547.48;221707;1264;139879;-85
2023/06/15 12:36:57;;;;;;;10.20;4.80;;;;;;;23.28;63.23;100544.54;222299;1264;138388;-83
2023/06/15 12:42:01;;;;;;;12.30;5.80;;;;;;;23.30;63.29;100543.39;221675;1264;142100;-88
2023/06/15 12:47:02;;;;;;;12.20;7.00;;;;;;;22.96;64.71;100540.97;222391;1264;97859;-90
2023/06/15 12:52:02;;;;;;;12.80;5.90;;;;;;;22.64;66.36;100544.61;221560;1267;139875;-85
2023/06/15 12:57:04;;;;;;;10.20;6.10;;;;;;;22.38;67.20;100547.20;222234;1267;138923;-88
2023/06/15 13:02:05;;;;;;;11.30;6.30;;;;;;;22.08;68.32;100550.15;221747;1264;140620;-84
2023/06/15 13:07:05;;;;;;;10.80;6.60;;;;;;;21.73;68.67;100548.75;222357;1267;138518;-86
2023/06/15 13:12:07;;;;;;;10.80;5.90;;;;;;;21.45;69.03;100543.70;221599;1267;141198;-86
2023/06/15 13:17:08;;;;;;;10.30;6.20;;;;;;;21.11;69.81;100538.95;221954;1264;112227;-87
2023/06/15 13:22:09;;;;;;;12.30;6.30;;;;;;;20.94;69.41;100534.80;221447;1264;141075;-86
2023/06/15 13:27:11;;;;;;;10.90;6.10;;;;;;;20.81;69.91;100541.88;221987;1264;138925;-86
2023/06/15 13:32:12;;;;;;;11.70;5.60;;;;;;;20.70;70.94;100554.02;221619;1264;139286;-85
2023/06/15 13:37:16;;;;;;;10.70;6.00;;;;;;;20.52;72.81;100551.48;222207;1264;138377;-87
2023/06/15 13:42:16;;;;;;;14.30;7.60;;;;;;;20.42;74.39;100558.48;221507;1264;139970;-87
2023/06/15 13:47:19;;;;;;;12.40;6.90;;;;;;;20.19;76.42;100555.02;222120;1264;97927;-82
2023/06/15 13:52:20;;;;;;;13.40;6.90;;;;;;;20.17;77.44;100549.65;221509;1264;141053;-83
2023/06/15 13:57:22;;;;;;;9.30;6.00;;;;;;;20.25;78.45;100547.58;222252;1264;139140;-82
2023/06/15 14:02:23;;;;;;;10.30;5.80;;;;;;;20.21;79.79;100541.73;221466;1267;141033;-81
2023/06/15 14:07:24;;;;;;;10.90;6.60;;;;;;;20.16;79.34;100541.85;222226;1264;139926;-82
2023/06/15 14:12:25;;;;;;;9.40;6.60;;;;;;;20.26;80.46;100544.36;221572;1264;142881;-82
2023/06/15 14:17:25;;;;;;;10.20;6.10;;;;;;;20.45;80.07;100542.58;222350;1264;97831;-84
2023/06/15 14:22:27;;;;;;;10.80;7.00;;;;;;;20.76;79.22;100542.10;221618;1267;141240;-83
2023/06/15 14:27:28;;;;;;;11.00;7.00;;;;;;;20.84;79.84;100537.71;221994;1264;139076;-83
2023/06/15 14:32:29;;;;;;;13.20;7.60;;;;;;;20.84;80.76;100537.55;221515;1264;141515;-84
2023/06/15 14:37:29;;;;;;;13.80;6.60;;;;;;;20.67;81.29;100541.25;222173;1264;139879;-84
2023/06/15 14:42:30;;;;;;;12.00;6.20;;;;;;;20.50;81.55;100535.58;221697;1264;142755;-83
2023/06/15 14:47:30;;;;;;;9.10;5.60;;;;;;;20.36;82.29;100535.24;222350;1264;97872;-83
2023/06/15 14:52:31;;;;;;;7.10;4.40;;;;;;;20.21;81.29;100532.92;221522;1264;140102;-83
2023/06/15 14:57:31;;;;;;;8.70;3.90;;;;;;;20.02;80.44;100522.15;222217;1263;138716;-84
2023/06/15 15:02:32;;;;;;;7.60;4.10;;;;;;;19.97;80.58;100517.96;221634;1264;141027;-84
2023/06/15 15:07:33;;;;;;;5.90;2.70;;;;;;;20.09;80.84;100507.32;222020;1264;138900;-84
2023/06/15 15:12:33;;;;;;;4.80;2.70;;;;;;;20.04;79.77;100502.70;221459;1264;141434;-84
2023/06/15 15:17:34;;;;;;;4.10;2.20;;;;;;;20.11;78.88;100509.16;222319;1263;97940;-83
2023/06/15 15:22:34;;;;;;;6.90;2.30;;;;;;;20.08;77.73;100505.02;221703;1263;140185;-82
2023/06/15 15:27:34;;;;;;;3.60;1.80;;;;;;;20.11;78.00;100512.59;222066;1264;139312;-85
2023/06/15 15:32:35;;;;;;;3.30;2.00;;;;;;;20.13;77.52;100511.59;221719;1264;141052;-88
2023/06/15 15:37:35;;;;;;;3.50;1.80;;;;;;;20.08;75.86;100512.02;222206;1264;138871;-89
2023/06/15 15:42:36;;;;;;;3.50;1.90;;;;;;;19.86;74.94;100512.73;221475;1264;140465;-91
2023/06/15 15:47:36;;;;;;;4.00;1.90;;;;;;;19.55;75.25;100511.04;222133;1264;97956;-88
2023/06/15 15:52:36;;;;;;;4.00;1.60;;;;;;;19.36;75.16;100503.14;221674;1264;139956;-89
2023/06/15 15:57:37;;;;;;;3.40;2.10;;;;;;;19.19;74.96;100495.23;222181;1264;138660;-86
2023/06/15 16:02:37;;;;;;;6.20;2.20;;;;;;;19.12;75.13;100491.31;221452;1264;141638;-87
2023/06/15 16:07:39;;;;;;;3.00;1.90;;;;;;;19.12;75.15;100482.05;221966;1264;139854;-85
2023/06/15 16:12:40;;;;;;;4.10;2.20;;;;;;;19.10;75.35;100483.45;221404;1264;140460;-87
2023/06/15 16:17:40;;;;;;;4.40;2.30;;;;;;;19.05;75.48;100486.74;222114;1264;97881;-88
2023/06/15 16:22:41;;;;;;;3.90;2.30;;;;;;;19.02;75.87;100484.44;221652;1264;139556;-87
2023/06/15 16:27:42;;;;;;;4.50;2.10;;;;;;;18.95;76.01;100485.55;222036;1267;138765;-87
2023/06/15 16:32:43;;;;;;;5.00;2.70;;;;;;;18.86;76.54;100483.99;221467;1266;139981;-87
2023/06/15 16:37:43;;;;;;;5.70;2.70;;;;;;;18.80;77.86;100486.35;221938;1267;140256;-87
2023/06/15 16:42:43;;;;;;;7.30;3.30;;;;;;;18.75;78.45;100493.80;221520;1264;141761;-88
2023/06/15 16:47:44;;;;;;;5.90;2.90;;;;;;;18.67;78.68;100493.79;222085;1264;97864;-87
2023/06/15 16:52:46;;;;;;;7.50;3.50;;;;;;;18.57;79.31;100499.81;221637;1267;140683;-87
2023/06/15 16:57:47;;;;;;;6.20;3.30;;;;;;;18.51;79.39;100496.36;222054;1264;140065;-86
2023/06/15 17:02:47;;;;;;;6.00;3.00;;;;;;;18.50;79.68;100496.06;221670;1264;142010;-87
2023/06/15 17:07:47;;;;;;;6.20;3.30;;;;;;;18.48;79.88;100491.48;222018;1264;138825;-87
2023/06/15 17:12:48;;;;;;;8.00;3.30;;;;;;;18.44;80.61;100495.69;221457;1264;141292;-86
2023/06/15 17:17:48;;;;;;;8.10;3.40;;;;;;;18.35;81.17;100486.95;222091;1264;97869;-85
2023/06/15 17:22:49;;;;;;;6.30;3.30;;;;;;;18.27;81.03;100491.06;221573;1264;141533;-86
2023/06/15 17:27:49;;;;;;;6.70;3.50;;;;;;;18.23;80.71;100490.91;222182;1264;139561;-86
2023/06/15 17:32:50;;;;;;;7.20;3.40;;;;;;;18.15;81.13;100493.60;221591;1264;142354;-87
2023/06/15 17:37:50;;;;;;;6.40;3.60;;;;;;;18.08;81.37;100500.83;221931;1267;138925;-88
2023/06/15 17:42:51;;;;;;;6.20;3.30;;;;;;;17.98;81.54;100504.74;221485;1264;140917;-87
2023/06/15 17:47:51;;;;;;;8.40;3.60;;;;;;;17.91;82.27;100515.67;221785;1267;139045;-86
2023/06/15 17:52:52;;;;;;;6.80;3.80;;;;;;;17.85;82.62;100519.30;221375;1266;140765;-85
2023/06/15 17:57:52;;;;;;;7.70;4.20;;;;;;;17.76;83.65;100513.09;222171;1264;138725;-85
2023/06/15 18:02:52;;;;;;;7.10;3.90;;;;;;;17.68;84.07;100512.10;221662;1266;142541;-86
2023/06/15 18:07:53;;;;;;;6.30;3.40;;;;;;;17.66;84.04;100511.02;221939;1264;139915;-86
2023/06/15 18:12:53;;;;;;;7.40;4.00;;;;;;;17.64;84.38;100516.78;221408;1264;141222;-89
2023/06/15 18:17:54;;;;;;;9.20;4.60;;;;;;;17.63;85.45;100518.94;221963;1263;139942;-87
2023/06/15 18:22:54;;;;;;;8.30;4.20;;;;;;;17.60;85.42;100515.02;221728;1264;140359;-87
2023/06/15 18:27:54;;;;;;;8.40;4.40;;;;;;;17.57;85.11;100506.95;221920;1266;139164;-87
2023/06/15 18:32:56;;;;;;;7.90;4.60;;;;;;;17.57;85.47;100504.89;221436;1264;142100;-88
2023/06/15 18:38:00;;;;;;;8.50;5.00;;;;;;;17.57;84.49;100501.08;221658;1266;290361;-88
2023/06/15 18:43:01;;;;;;;8.50;4.60;;;;;;;17.56;86.42;100502.67;221266;1264;142228;-87
2023/06/15 18:48:01;;;;;;;7.60;3.80;;;;;;;17.52;86.70;100507.20;221927;1266;140134;-89
2023/06/15 18:53:02;;;;;;;7.00;3.80;;;;;;;17.48;87.19;100505.03;221722;1264;139656;-87
2023/06/15 18:58:03;;;;;;;9.90;4.90;;;;;;;17.43;86.95;100500.50;221959;1264;138763;-87
2023/06/15 19:03:04;;;;;;;7.30;4.30;;;;;;;17.39;87.27;100498.73;221464;1266;140878;-88
2023/06/15 19:08:05;;;;;;;8.70;4.40;;;;;;;17.34;87.26;100495.60;221970;1264;138862;-87
2023/06/15 19:13:06;;;;;;;9.90;4.90;;;;;;;17.27;87.85;100492.21;221403;1267;141924;-87
2023/06/15 19:18:06;;;;;;;9.30;4.90;;;;;;;17.20;88.71;100486.52;221941;1267;138887;-88
2023/06/15 19:23:07;;;;;;;8.80;4.80;;;;;;;17.10;88.95;100488.56;221444;1265;141136;-88
2023/06/15 19:28:07;;;;;;;8.70;4.90;;;;;;;17.02;88.96;100488.75;221973;1266;138831;-87
2023/06/15 19:33:10;;;;;;;10.00;5.20;;;;;;;16.97;89.23;100484.16;221665;1264;139778;-87
2023/06/15 19:38:11;;;;;;;9.40;5.50;;;;;;;16.87;90.26;100481.27;221979;1264;139649;-87
2023/06/15 19:43:11;;;;;;;9.00;5.20;;;;;;;16.75;90.90;100482.46;221507;1264;141631;-87
2023/06/15 19:48:12;;;;;;;13.30;7.60;;;;;;;16.64;90.79;100486.19;222168;1266;139441;-88
2023/06/15 19:53:12;;;;;;;14.10;7.70;;;;;;;16.53;90.81;100488.54;221716;1264;140230;-87
2023/06/15 19:58:13;;;;;;;15.70;8.90;;;;;;;16.43;90.59;100486.13;221955;1264;139066;-87
2023/06/15 20:03:13;;;;;;;13.20;8.30;;;;;;;16.36;90.47;100487.61;221423;1266;142755;-87
2023/06/15 20:08:13;;;;;;;11.70;7.30;;;;;;;16.29;90.19;100489.91;221979;1266;139174;-87
2023/06/15 20:13:13;;;;;;;11.80;6.70;;;;;;;16.18;91.71;100491.69;221708;1265;141984;-86
2023/06/15 20:18:14;;;;;;;12.00;6.70;;;;;;;16.01;92.19;100487.98;222050;1264;139842;-88
2023/06/15 20:23:14;;;;;;;11.60;6.20;;;;;;;15.82;92.59;100488.40;221505;1266;141748;-89
2023/06/15 20:28:15;;;;;;;12.10;7.20;;;;;;;15.68;92.02;100489.95;222149;1265;139184;-87
2023/06/15 20:33:16;;;;;;;10.40;6.60;;;;;;;15.57;93.33;100495.67;221670;1266;141307;-88
2023/06/15 20:38:16;;;;;;;13.90;7.80;;;;;;;15.40;93.32;100497.23;221986;1266;139816;-86
2023/06/15 20:43:18;;;;;;;13.30;6.90;;;;;;;15.29;93.47;100502.61;221661;1268;141942;-86
2023/06/15 20:48:18;;;;;;;11.80;7.10;;;;;;;15.16;94.08;100495.94;222144;1264;139015;-86
2023/06/15 20:53:18;;;;;;;10.80;6.60;;;;;;;15.02;93.96;100499.52;221783;1266;140737;-86
2023/06/15 20:58:20;;;;;;;9.90;5.60;;;;;;;14.91;93.60;100497.77;221982;1266;139592;-85
2023/06/15 21:03:21;;;;;;;13.50;7.00;;;;;;;14.83;94.10;100486.56;221426;1266;140731;-87
2023/06/15 21:08:24;;;;;;;10.70;6.80;;;;;;;14.67;94.67;100482.45;221961;1264;139306;-87
2023/06/15 21:13:26;;;;;;;10.50;6.80;;;;;;;14.50;95.07;100477.54;221622;1267;141915;-85
2023/06/15 21:18:27;;;;;;;10.00;6.70;;;;;;;14.39;95.31;100475.45;222147;1265;139260;-86
2023/06/15 21:23:28;;;;;;;12.00;7.90;;;;;;;14.27;96.16;100472.95;221647;1266;141274;-87
2023/06/15 21:28:28;;;;;;;12.40;6.60;;;;;;;14.14;95.77;100470.98;222216;1266;138938;-86
2023/06/15 21:33:29;;;;;;;11.90;7.10;;;;;;;14.07;96.22;100471.40;221640;1266;141828;-85
2023/06/15 21:38:29;;;;;;;11.90;7.60;;;;;;;13.98;96.98;100476.55;222238;1263;139954;-86
2023/06/15 21:43:30;;;;;;;11.00;6.10;;;;;;;13.87;97.14;100479.73;221641;1267;141262;-85
2023/06/15 21:48:31;;;;;;;12.40;7.60;;;;;;;13.79;96.95;100482.11;221959;1264;139730;-86
2023/06/15 21:53:31;;;;;;;11.90;7.60;;;;;;;13.75;98.43;100482.61;221536;1265;140477;-87
2023/06/15 21:58:32;;;;;;;11.10;6.80;;;;;;;13.71;98.57;100482.30;222012;1266;139185;-86
2023/06/15 22:03:32;;;;;;;11.80;6.70;;;;;;;13.70;98.84;100482.91;221551;1266;139167;-87
2023/06/15 22:08:33;;;;;;;16.10;8.30;;;;;;;13.67;99.23;100481.34;222229;1265;139381;-87
2023/06/15 22:13:34;;;;;;;11.60;7.70;;;;;;;13.65;99.76;100477.08;221594;1265;140482;-86
2023/06/15 22:18:34;;;;;;;12.90;8.10;;;;;;;13.64;99.90;100471.63;221906;1266;139815;-86
2023/06/15 22:23:35;;;;;;;12.10;7.40;;;;;;;13.65;100.00;100464.67;221544;1264;141883;-86
2023/06/15 22:28:35;;;;;;;12.10;7.60;;;;;;;13.66;100.00;100464.27;222171;1263;140144;-86
2023/06/15 22:33:35;;;;;;;12.00;7.60;;;;;;;13.69;99.94;100466.73;221671;1265;141357;-87
2023/06/15 22:38:37;;;;;;;12.70;8.60;;;;;;;13.71;99.83;100466.56;221984;1264;139095;-86